createdAt,value
2023-04-19T00:02:11.874Z,96541.19
2023-04-19T00:04:38.652Z,96540.63
2023-04-19T00:07:05.321Z,96540.84
2023-04-19T00:09:32.047Z,96535.25
2023-04-19T00:11:58.643Z,96535.53
2023-04-19T00:14:25.680Z,96535.00
2023-04-19T00:16:52.381Z,96527.81
2023-04-19T00:19:18.998Z,96531.03
2023-04-19T00:21:45.652Z,96525.56
2023-04-19T00:24:12.308Z,96531.94
2023-04-19T00:26:38.974Z,96524.38
2023-04-19T00:29:05.629Z,96528.06
2023-04-19T00:31:32.300Z,96517.31
2023-04-19T00:33:58.932Z,96523.13
2023-04-19T00:36:26.749Z,96511.31
2023-04-19T00:38:53.384Z,96514.91
2023-04-19T00:41:19.991Z,96512.72
2023-04-19T00:43:46.702Z,96504.09
2023-04-19T00:46:15.163Z,96503.22
2023-04-19T00:48:41.931Z,96496.84
2023-04-19T00:51:10.537Z,96499.53
2023-04-19T00:53:38.405Z,96496.56
2023-04-19T00:56:05.962Z,96493.00
2023-04-19T00:58:32.920Z,96487.41
2023-04-19T01:01:00.474Z,96483.13
2023-04-19T01:03:29.749Z,96489.16
2023-04-19T01:05:57.382Z,96491.22
2023-04-19T01:08:24.290Z,96482.66
2023-04-19T01:10:50.970Z,96479.19
2023-04-19T01:13:17.563Z,96478.06
2023-04-19T01:15:44.302Z,96476.63
2023-04-19T01:18:11.445Z,96474.53
2023-04-19T01:20:38.097Z,96468.88
2023-04-19T01:23:04.851Z,96467.06
2023-04-19T01:25:31.648Z,96467.75
2023-04-19T01:27:58.332Z,96463.59
2023-04-19T01:30:24.985Z,96460.88
2023-04-19T01:32:51.793Z,96460.00
2023-04-19T01:35:19.007Z,96450.75
2023-04-19T01:37:45.684Z,96456.28
2023-04-19T01:40:12.886Z,96453.38
2023-04-19T01:42:39.502Z,96458.38
2023-04-19T01:45:06.654Z,96453.50
2023-04-19T01:47:33.315Z,96450.91
2023-04-19T01:49:59.970Z,96447.69
2023-04-19T01:52:26.690Z,96441.75
2023-04-19T01:54:53.271Z,96437.31
2023-04-19T01:57:19.976Z,96440.63
2023-04-19T01:59:46.668Z,96440.00
2023-04-19T02:02:13.430Z,96435.72
2023-04-19T02:04:40.140Z,96434.63
2023-04-19T02:07:06.868Z,96445.88
2023-04-19T02:09:37.753Z,96436.50
2023-04-19T02:12:05.042Z,96438.34
2023-04-19T02:14:32.333Z,96425.19
2023-04-19T02:16:58.948Z,96423.78
2023-04-19T02:19:25.564Z,96422.94
2023-04-19T02:21:53.749Z,96416.91
2023-04-19T02:24:20.443Z,96416.59
2023-04-19T02:26:47.127Z,96412.13
2023-04-19T02:29:14.045Z,96416.34
2023-04-19T02:31:40.732Z,96410.13
2023-04-19T02:34:07.412Z,96410.94
2023-04-19T02:36:34.066Z,96403.97
2023-04-19T02:39:00.655Z,96408.19
2023-04-19T02:41:27.303Z,96403.97
2023-04-19T02:43:53.894Z,96402.88
2023-04-19T02:46:20.542Z,96401.22
2023-04-19T02:48:47.193Z,96400.44
2023-04-19T02:51:17.639Z,96403.50
2023-04-19T02:53:44.314Z,96407.25
2023-04-19T02:56:10.920Z,96400.75
2023-04-19T02:58:37.567Z,96403.16
2023-04-19T03:01:04.246Z,96399.63
2023-04-19T03:03:31.000Z,96391.06
2023-04-19T03:05:58.048Z,96391.81
2023-04-19T03:08:24.795Z,96389.50
2023-04-19T03:10:51.467Z,96388.75
2023-04-19T03:13:18.088Z,96381.78
2023-04-19T03:15:44.803Z,96380.41
2023-04-19T03:18:11.536Z,96386.81
2023-04-19T03:20:38.166Z,96382.50
2023-04-19T03:23:04.865Z,96381.44
2023-04-19T03:25:32.178Z,96379.00
2023-04-19T03:27:58.829Z,96375.59
2023-04-19T03:30:25.441Z,96369.63
2023-04-19T03:32:52.315Z,96373.91
2023-04-19T03:35:19.037Z,96374.44
2023-04-19T03:37:45.837Z,96369.09
2023-04-19T03:40:12.790Z,96372.06
2023-04-19T03:42:39.379Z,96371.47
2023-04-19T03:45:06.346Z,96371.28
2023-04-19T03:47:33.005Z,96366.03
2023-04-19T03:49:59.648Z,96366.13
2023-04-19T03:52:26.284Z,96360.44
2023-04-19T03:54:52.936Z,96368.25
2023-04-19T03:57:19.526Z,96365.91
2023-04-19T03:59:46.129Z,96367.63
2023-04-19T04:02:12.841Z,96370.19
2023-04-19T04:04:39.919Z,96365.97
2023-04-19T04:07:06.597Z,96372.31
2023-04-19T04:09:33.229Z,96368.91
2023-04-19T04:11:59.842Z,96365.13
2023-04-19T04:14:26.438Z,96366.78
2023-04-19T04:16:53.104Z,96364.34
2023-04-19T04:19:21.922Z,96372.69
2023-04-19T04:21:49.353Z,96368.16
2023-04-19T04:24:17.992Z,96374.16
2023-04-19T04:26:44.697Z,96367.41
2023-04-19T04:29:11.330Z,96369.06
2023-04-19T04:31:38.012Z,96371.81
2023-04-19T04:34:04.615Z,96366.63
2023-04-19T04:36:31.245Z,96370.13
2023-04-19T04:38:58.826Z,96369.44
2023-04-19T04:41:25.496Z,96364.94
2023-04-19T04:44:08.322Z,96361.41
2023-04-19T04:46:37.807Z,96362.16
2023-04-19T04:49:04.523Z,96361.16
2023-04-19T04:51:31.870Z,96355.09
2023-04-19T04:53:58.711Z,96359.59
2023-04-19T04:56:27.108Z,96356.63
2023-04-19T04:58:53.935Z,96359.31
2023-04-19T05:01:21.636Z,96354.97
2023-04-19T05:03:48.326Z,96361.47
2023-04-19T05:06:15.019Z,96359.38
2023-04-19T05:08:41.797Z,96353.66
2023-04-19T05:11:09.020Z,96351.72
2023-04-19T05:13:35.803Z,96349.50
2023-04-19T05:16:02.641Z,96350.50
2023-04-19T05:18:29.276Z,96348.84
2023-04-19T05:20:57.371Z,96351.75
2023-04-19T05:23:23.970Z,96349.06
2023-04-19T05:25:50.573Z,96341.81
2023-04-19T05:28:17.179Z,96349.06
2023-04-19T05:30:43.960Z,96339.94
2023-04-19T05:33:10.681Z,96345.59
2023-04-19T05:35:37.339Z,96350.22
2023-04-19T05:38:04.006Z,96344.59
2023-04-19T05:40:30.696Z,96352.03
2023-04-19T05:42:57.298Z,96350.41
2023-04-19T05:45:24.486Z,96346.81
2023-04-19T05:47:51.096Z,96340.38
2023-04-19T05:50:20.561Z,96347.66
2023-04-19T05:52:47.415Z,96348.63
2023-04-19T05:55:14.176Z,96341.94
2023-04-19T05:57:40.914Z,96343.84
2023-04-19T06:00:09.710Z,96343.16
2023-04-19T06:02:37.070Z,96338.66
2023-04-19T06:05:09.971Z,96342.06
2023-04-19T06:07:40.719Z,96339.84
2023-04-19T06:10:14.261Z,96331.66
2023-04-19T06:12:40.862Z,96334.25
2023-04-19T06:15:07.935Z,96341.16
2023-04-19T06:17:34.592Z,96332.56
2023-04-19T06:20:01.220Z,96327.19
2023-04-19T06:22:27.941Z,96329.34
2023-04-19T06:24:54.540Z,96336.19
2023-04-19T06:27:21.199Z,96332.44
2023-04-19T06:29:49.818Z,96328.28
2023-04-19T06:32:17.727Z,96323.03
2023-04-19T06:34:44.378Z,96331.28
2023-04-19T06:37:10.964Z,96327.56
2023-04-19T06:39:37.610Z,96329.03
2023-04-19T06:42:04.281Z,96320.59
2023-04-19T06:44:31.175Z,96312.41
2023-04-19T06:46:57.799Z,96311.75
2023-04-19T06:49:24.496Z,96310.19
2023-04-19T06:51:51.230Z,96313.66
2023-04-19T06:54:18.095Z,96317.81
2023-04-19T06:56:47.034Z,96309.47
2023-04-19T06:59:15.039Z,96312.84
2023-04-19T07:01:41.846Z,96305.13
2023-04-19T07:04:08.726Z,96307.94
2023-04-19T07:06:36.306Z,96312.88
2023-04-19T07:09:04.187Z,96304.88
2023-04-19T07:11:31.199Z,96306.56
2023-04-19T07:13:58.632Z,96304.28
2023-04-19T07:16:25.510Z,96313.94
2023-04-19T07:18:52.522Z,96305.81
2023-04-19T07:21:19.232Z,96307.81
2023-04-19T07:23:45.961Z,96296.16
2023-04-19T07:26:12.646Z,96299.06
2023-04-19T07:28:40.094Z,96293.06
2023-04-19T07:31:06.868Z,96290.88
2023-04-19T07:33:33.596Z,96290.91
2023-04-19T07:36:00.287Z,96288.88
2023-04-19T07:38:26.925Z,96283.47
2023-04-19T07:40:53.560Z,96284.97
2023-04-19T07:43:20.232Z,96286.22
2023-04-19T07:45:46.834Z,96282.84
2023-04-19T07:48:14.746Z,96276.50
2023-04-19T07:50:41.362Z,96278.19
2023-04-19T07:53:08.015Z,96279.88
2023-04-19T07:55:34.670Z,96282.56
2023-04-19T07:58:02.269Z,96269.81
2023-04-19T08:00:30.027Z,96272.44
2023-04-19T08:02:59.933Z,96268.75
2023-04-19T08:05:27.551Z,96271.72
2023-04-19T08:07:54.384Z,96277.81
2023-04-19T08:10:22.434Z,96277.13
2023-04-19T08:13:04.511Z,96273.88
2023-04-19T08:18:05.624Z,96267.03
2023-04-19T08:20:33.133Z,96275.88
2023-04-19T08:23:07.296Z,96272.44
2023-04-19T08:25:41.502Z,96263.84
2023-04-19T08:28:08.365Z,96269.13
2023-04-19T08:30:35.117Z,96261.19
2023-04-19T08:33:01.893Z,96262.28
2023-04-19T08:35:28.695Z,96261.91
2023-04-19T08:37:55.414Z,96254.25
2023-04-19T08:40:22.243Z,96254.03
2023-04-19T08:42:48.976Z,96255.19
2023-04-19T08:45:27.775Z,96256.06
2023-04-19T08:48:01.815Z,96255.78
2023-04-19T08:53:12.160Z,96255.72
2023-04-19T08:56:06.946Z,96251.09
2023-04-19T09:01:06.675Z,96246.75
2023-04-19T09:03:38.549Z,96242.66
2023-04-19T09:06:14.596Z,96244.00
2023-04-19T09:08:41.951Z,96235.31
2023-04-19T09:11:09.141Z,96228.00
2023-04-19T09:13:38.427Z,96225.41
2023-04-19T09:16:05.910Z,96217.16
2023-04-19T09:18:34.437Z,96227.91
2023-04-19T09:21:04.743Z,96217.88
2023-04-19T09:23:31.342Z,96219.72
2023-04-19T09:28:34.207Z,96216.88
2023-04-19T09:31:33.225Z,96209.75
2023-04-19T09:34:19.581Z,96209.53
2023-04-19T09:36:46.899Z,96209.25
2023-04-19T09:39:14.920Z,96200.97
2023-04-19T09:41:54.886Z,96193.16
2023-04-19T09:44:53.035Z,96201.94
2023-04-19T09:47:26.309Z,96197.78
2023-04-19T09:50:19.210Z,96197.34
2023-04-19T09:52:49.449Z,96186.41
2023-04-19T09:55:27.076Z,96188.28
2023-04-19T09:57:55.253Z,96183.63
2023-04-19T10:00:22.960Z,96183.66
2023-04-19T10:02:57.934Z,96179.44
2023-04-19T10:05:25.819Z,96170.25
2023-04-19T10:07:59.309Z,96174.34
2023-04-19T10:10:41.164Z,96173.38
2023-04-19T10:13:19.800Z,96171.78
2023-04-19T10:15:55.345Z,96178.06
2023-04-19T10:18:26.886Z,96187.34
2023-04-19T10:21:02.260Z,96176.16
2023-04-19T10:23:29.366Z,96182.53
2023-04-19T10:25:58.050Z,96178.97
2023-04-19T10:28:24.996Z,96191.69
2023-04-19T10:30:57.639Z,96185.22
2023-04-19T10:33:26.043Z,96181.38
2023-04-19T10:35:57.327Z,96180.44
2023-04-19T10:38:48.999Z,96176.56
2023-04-19T10:41:18.691Z,96171.97
2023-04-19T10:43:56.147Z,96174.00
2023-04-19T10:46:23.137Z,96170.00
2023-04-19T10:48:54.346Z,96162.31
2023-04-19T10:51:23.826Z,96163.63
2023-04-19T10:53:54.209Z,96165.38
2023-04-19T10:56:42.148Z,96171.09
2023-04-19T10:59:21.555Z,96157.25
2023-04-19T11:01:57.272Z,96148.66
2023-04-19T11:04:30.027Z,96154.13
2023-04-19T11:07:06.028Z,96147.38
2023-04-19T11:09:38.698Z,96150.31
2023-04-19T11:12:10.760Z,96146.25
2023-04-19T11:14:49.187Z,96143.34
2023-04-19T11:17:27.131Z,96147.00
2023-04-19T11:19:59.757Z,96137.50
2023-04-19T11:22:37.418Z,96138.00
2023-04-19T11:25:18.199Z,96129.72
2023-04-19T11:27:50.901Z,96131.63
2023-04-19T11:30:21.540Z,96129.66
2023-04-19T11:32:50.907Z,96130.84
2023-04-19T11:35:22.538Z,96120.78
2023-04-19T11:37:49.714Z,96125.53
2023-04-19T11:40:18.005Z,96121.59
2023-04-19T11:42:45.222Z,96123.69
2023-04-19T11:45:25.923Z,96117.31
2023-04-19T11:47:55.855Z,96122.59
2023-04-19T11:50:34.379Z,96123.28
2023-04-19T11:53:12.473Z,96128.00
2023-04-19T11:55:39.294Z,96132.06
2023-04-19T11:58:11.622Z,96131.66
2023-04-19T12:00:38.372Z,96113.34
2023-04-19T12:03:05.294Z,96125.97
2023-04-19T12:05:32.622Z,96114.31
2023-04-19T12:08:03.759Z,96117.75
2023-04-19T12:10:31.903Z,96115.06
2023-04-19T12:12:59.061Z,96118.97
2023-04-19T12:15:44.469Z,96118.19
2023-04-19T12:18:11.345Z,96125.38
2023-04-19T12:20:43.581Z,96121.38
2023-04-19T12:23:13.917Z,96132.03
2023-04-19T12:25:41.444Z,96129.50
2023-04-19T12:28:08.227Z,96132.31
2023-04-19T12:30:38.555Z,96120.78
2023-04-19T12:33:06.964Z,96132.50
2023-04-19T12:35:34.889Z,96135.72
2023-04-19T12:38:02.792Z,96127.44
2023-04-19T12:40:30.726Z,96135.38
2023-04-19T12:42:57.463Z,96133.72
2023-04-19T12:45:24.150Z,96132.16
2023-04-19T12:47:51.170Z,96137.69
2023-04-19T12:50:17.839Z,96143.22
2023-04-19T12:52:46.168Z,96141.81
2023-04-19T12:55:13.053Z,96135.16
2023-04-19T12:57:39.734Z,96138.28
2023-04-19T13:00:07.474Z,96151.44
2023-04-19T13:02:35.014Z,96148.41
2023-04-19T13:05:02.273Z,96150.66
2023-04-19T13:07:29.217Z,96154.19
2023-04-19T13:09:56.797Z,96155.63
2023-04-19T13:12:24.259Z,96149.97
2023-04-19T13:14:52.547Z,96156.94
2023-04-19T13:17:20.390Z,96155.63
2023-04-19T13:19:47.593Z,96150.28
2023-04-19T13:22:14.877Z,96157.50
2023-04-19T13:24:41.571Z,96147.81
2023-04-19T13:27:09.233Z,96148.16
2023-04-19T13:29:36.468Z,96142.81
2023-04-19T13:32:07.290Z,96143.94
2023-04-19T13:34:34.210Z,96143.47
2023-04-19T13:37:01.061Z,96137.69
2023-04-19T13:39:27.651Z,96141.44
2023-04-19T13:41:54.274Z,96131.69
2023-04-19T13:44:20.924Z,96135.16
2023-04-19T13:46:47.683Z,96130.72
2023-04-19T13:49:14.355Z,96135.03
2023-04-19T13:51:49.634Z,96138.81
2023-04-19T13:54:21.284Z,96124.81
2023-04-19T13:56:50.476Z,96126.69
2023-04-19T13:59:18.148Z,96116.53
2023-04-19T14:01:44.743Z,96123.00
2023-04-19T14:04:11.584Z,96115.81
2023-04-19T14:06:38.348Z,96119.56
2023-04-19T14:09:04.975Z,96121.50
2023-04-19T14:11:31.661Z,96132.53
2023-04-19T14:13:58.326Z,96122.41
2023-04-19T14:16:25.552Z,96126.97
2023-04-19T14:18:52.653Z,96123.03
2023-04-19T14:21:19.509Z,96125.47
2023-04-19T14:23:46.137Z,96129.75
2023-04-19T14:26:13.082Z,96127.75
2023-04-19T14:28:39.672Z,96129.84
2023-04-19T14:31:06.416Z,96122.38
2023-04-19T14:33:33.288Z,96128.72
2023-04-19T14:36:00.047Z,96125.59
2023-04-19T14:38:26.702Z,96126.75
2023-04-19T14:40:53.340Z,96124.13
2023-04-19T14:43:20.015Z,96133.94
2023-04-19T14:45:49.880Z,96135.31
2023-04-19T14:48:16.648Z,96138.81
2023-04-19T14:50:43.364Z,96145.28
2023-04-19T14:53:10.009Z,96139.88
2023-04-19T14:55:39.780Z,96148.09
2023-04-19T14:58:06.586Z,96147.44
2023-04-19T15:00:33.817Z,96148.09
2023-04-19T15:03:01.509Z,96148.31
2023-04-19T15:05:28.648Z,96155.41
2023-04-19T15:07:55.624Z,96161.84
2023-04-19T15:10:22.293Z,96162.94
2023-04-19T15:12:48.929Z,96166.78
2023-04-19T15:15:15.763Z,96168.50
2023-04-19T15:17:43.082Z,96173.34
2023-04-19T15:20:10.100Z,96173.69
2023-04-19T15:22:36.702Z,96176.25
2023-04-19T15:25:03.829Z,96173.16
2023-04-19T15:27:31.343Z,96176.97
2023-04-19T15:29:58.006Z,96182.06
2023-04-19T15:32:24.754Z,96180.41
2023-04-19T15:34:51.583Z,96182.91
2023-04-19T15:37:18.185Z,96197.88
2023-04-19T15:39:44.908Z,96196.00
2023-04-19T15:42:11.631Z,96193.88
2023-04-19T15:44:38.271Z,96195.50
2023-04-19T15:47:05.118Z,96208.84
2023-04-19T15:49:31.787Z,96190.47
2023-04-19T15:51:58.432Z,96205.69
2023-04-19T15:54:25.122Z,96213.19
2023-04-19T15:56:51.763Z,96206.50
2023-04-19T15:59:18.552Z,96211.56
2023-04-19T16:01:45.404Z,96220.09
2023-04-19T16:04:12.247Z,96225.97
2023-04-19T16:06:39.088Z,96224.34
2023-04-19T16:09:06.631Z,96214.22
2023-04-19T16:11:33.314Z,96224.34
2023-04-19T16:13:59.956Z,96231.84
2023-04-19T16:16:28.223Z,96234.22
2023-04-19T16:18:54.854Z,96232.38
2023-04-19T16:21:21.573Z,96230.22
2023-04-19T16:23:48.164Z,96235.50
2023-04-19T16:26:14.814Z,96232.88
2023-04-19T16:28:41.870Z,96236.34
2023-04-19T16:31:08.552Z,96236.09
2023-04-19T16:33:35.177Z,96239.28
2023-04-19T16:36:01.800Z,96234.78
2023-04-19T16:38:28.525Z,96237.16
2023-04-19T16:40:55.869Z,96236.63
2023-04-19T16:43:22.570Z,96239.28
2023-04-19T16:45:49.269Z,96238.13
2023-04-19T16:48:16.186Z,96233.44
2023-04-19T16:50:42.802Z,96233.94
2023-04-19T16:53:09.483Z,96233.94
2023-04-19T16:55:36.917Z,96239.81
2023-04-19T16:58:03.613Z,96233.41
2023-04-19T17:00:30.339Z,96236.31
2023-04-19T17:02:57.116Z,96238.75
2023-04-19T17:05:23.959Z,96242.47
2023-04-19T17:07:51.808Z,96238.75
2023-04-19T17:10:18.457Z,96234.50
2023-04-19T17:12:45.162Z,96232.63
2023-04-19T17:15:11.887Z,96222.78
2023-04-19T17:17:38.533Z,96229.72
2023-04-19T17:20:06.246Z,96231.31
2023-04-19T17:22:33.067Z,96235.84
2023-04-19T17:25:00.487Z,96227.59
2023-04-19T17:27:27.203Z,96232.91
2023-04-19T17:29:53.820Z,96230.78
2023-04-19T17:32:20.541Z,96235.56
2023-04-19T17:34:47.296Z,96230.53
2023-04-19T17:37:13.901Z,96232.94
2023-04-19T17:39:40.619Z,96238.25
2023-04-19T17:42:07.210Z,96233.97
2023-04-19T17:44:33.852Z,96238.75
2023-04-19T17:47:00.544Z,96237.19
2023-04-19T17:49:27.310Z,96232.91
2023-04-19T17:51:56.069Z,96245.19
2023-04-19T17:54:22.814Z,96239.81
2023-04-19T17:56:49.444Z,96251.53
2023-04-19T17:59:16.188Z,96244.59
2023-04-19T18:01:43.082Z,96240.84
2023-04-19T18:04:11.708Z,96242.25
2023-04-19T18:06:38.547Z,96241.97
2023-04-19T18:09:05.334Z,96239.03
2023-04-19T18:11:31.987Z,96239.84
2023-04-19T18:13:58.601Z,96243.84
2023-04-19T18:16:25.220Z,96237.97
2023-04-19T18:18:51.911Z,96243.03
2023-04-19T18:21:18.606Z,96239.25
2023-04-19T18:23:45.351Z,96239.84
2023-04-19T18:26:11.951Z,96245.69
2023-04-19T18:28:39.435Z,96247.75
2023-04-19T18:31:07.536Z,96251.03
2023-04-19T18:33:34.362Z,96246.53
2023-04-19T18:36:01.029Z,96240.34
2023-04-19T18:38:27.687Z,96238.00
2023-04-19T18:40:54.364Z,96233.06
2023-04-19T18:43:21.226Z,96225.16
2023-04-19T18:45:57.138Z,96231.56
2023-04-19T18:48:29.097Z,96230.78
2023-04-19T18:50:57.187Z,96214.50
2023-04-19T18:53:26.924Z,96210.50
2023-04-19T18:55:57.722Z,96214.50
2023-04-19T18:58:26.276Z,96215.31
2023-04-19T19:00:53.072Z,96207.56
2023-04-19T19:03:49.824Z,96220.91
2023-04-19T19:06:08.523Z,96211.56
2023-04-19T19:08:35.409Z,96210.72
2023-04-19T19:13:31.850Z,96223.81
2023-04-19T19:15:58.638Z,96230.47
2023-04-19T19:18:27.674Z,96232.34
2023-04-19T19:21:01.146Z,96232.59
2023-04-19T19:23:35.773Z,96229.44
2023-04-19T19:26:04.484Z,96229.19
2023-04-19T19:28:31.115Z,96230.75
2023-04-19T19:30:57.879Z,96233.44
2023-04-19T19:33:24.948Z,96239.88
2023-04-19T19:35:51.557Z,96230.25
2023-04-19T19:38:18.161Z,96231.31
2023-04-19T19:43:14.271Z,96226.50
2023-04-19T19:45:41.659Z,96236.09
2023-04-19T19:48:08.574Z,96234.75
2023-04-19T19:53:05.109Z,96228.84
2023-04-19T19:55:31.744Z,96219.50
2023-04-19T20:02:58.781Z,96212.00
2023-04-19T20:05:26.622Z,96217.09
2023-04-19T20:08:07.534Z,96224.06
2023-04-19T20:10:34.981Z,96217.41
2023-04-19T20:13:01.724Z,96208.91
2023-04-19T20:15:29.952Z,96208.91
2023-04-19T20:17:56.615Z,96206.75
2023-04-19T20:20:23.569Z,96208.09
2023-04-19T20:22:50.444Z,96209.41
2023-04-19T20:25:17.132Z,96205.69
2023-04-19T20:27:43.708Z,96199.81
2023-04-19T20:30:10.769Z,96202.50
2023-04-19T20:32:37.420Z,96204.34
2023-04-19T20:35:09.828Z,96206.22
2023-04-19T20:37:45.149Z,96204.06
2023-04-19T20:40:14.482Z,96204.59
2023-04-19T20:42:41.418Z,96204.59
2023-04-19T20:45:12.854Z,96208.63
2023-04-19T20:47:39.678Z,96204.63
2023-04-19T20:50:07.882Z,96208.88
2023-04-19T20:52:35.207Z,96208.91
2023-04-19T20:55:02.036Z,96211.03
2023-04-19T20:57:28.666Z,96212.13
2023-04-19T20:59:55.372Z,96207.31
2023-04-19T21:02:22.155Z,96210.50
2023-04-19T21:04:48.889Z,96204.63
2023-04-19T21:07:15.604Z,96202.50
2023-04-19T21:09:42.303Z,96203.03
2023-04-19T21:12:08.981Z,96205.41
2023-04-19T21:14:35.690Z,96201.44
2023-04-19T21:17:03.577Z,96199.28
2023-04-19T21:19:30.552Z,96196.63
2023-04-19T21:21:58.297Z,96203.56
2023-04-19T21:24:24.867Z,96200.91
2023-04-19T21:26:51.497Z,96200.88
2023-04-19T21:29:18.240Z,96212.63
2023-04-19T21:31:45.157Z,96211.03
2023-04-19T21:34:11.881Z,96208.88
2023-04-19T21:36:38.641Z,96202.22
2023-04-19T21:39:05.385Z,96203.56
2023-04-19T21:41:32.058Z,96205.41
2023-04-19T21:43:58.658Z,96206.75
2023-04-19T21:46:25.527Z,96204.09
2023-04-19T21:48:54.259Z,96210.22
2023-04-19T21:51:22.271Z,96204.63
2023-04-19T21:53:48.875Z,96199.81
2023-04-19T21:56:15.494Z,96208.38
2023-04-19T21:58:42.101Z,96215.03
2023-04-19T22:01:10.086Z,96204.91
2023-04-19T22:03:37.649Z,96206.22
2023-04-19T22:06:04.795Z,96205.19
2023-04-19T22:08:32.936Z,96201.44
2023-04-19T22:11:00.435Z,96199.81
2023-04-19T22:13:28.428Z,96191.28
2023-04-19T22:15:57.185Z,96192.91
2023-04-19T22:18:24.203Z,96192.88
2023-04-19T22:20:52.195Z,96188.88
2023-04-19T22:23:19.120Z,96191.28
2023-04-19T22:25:46.011Z,96194.50
2023-04-19T22:28:12.812Z,96192.91
2023-04-19T22:30:39.557Z,96189.13
2023-04-19T22:33:06.214Z,96184.34
2023-04-19T22:35:32.872Z,96177.97
2023-04-19T22:37:59.501Z,96170.19
2023-04-19T22:40:26.217Z,96170.47
2023-04-19T22:42:52.840Z,96174.72
2023-04-19T22:45:19.453Z,96169.41
2023-04-19T22:47:46.136Z,96167.78
2023-04-19T22:50:12.935Z,96173.63
2023-04-19T22:52:40.961Z,96175.81
2023-04-19T22:55:07.856Z,96179.03
2023-04-19T22:57:34.493Z,96164.06
2023-04-19T23:00:01.166Z,96169.94
2023-04-19T23:02:27.962Z,96164.06
2023-04-19T23:04:54.733Z,96161.94
2023-04-19T23:07:22.058Z,96162.44
2023-04-19T23:09:49.791Z,96171.00
2023-04-19T23:12:17.456Z,96162.47
2023-04-19T23:14:44.203Z,96160.28
2023-04-19T23:17:10.819Z,96150.16
2023-04-19T23:19:38.859Z,96147.50
2023-04-19T23:22:05.738Z,96137.84
2023-04-19T23:24:32.483Z,96133.63
2023-04-19T23:26:59.099Z,96135.19
2023-04-19T23:29:25.740Z,96131.50
2023-04-19T23:31:52.640Z,96130.69
2023-04-19T23:34:19.511Z,96124.78
2023-04-19T23:36:46.151Z,96124.78
2023-04-19T23:39:12.872Z,96125.34
2023-04-19T23:41:39.475Z,96121.31
2023-04-19T23:44:06.292Z,96119.75
2023-04-19T23:46:33.067Z,96117.63
2023-04-19T23:48:59.753Z,96115.50
2023-04-19T23:51:26.396Z,96106.97
2023-04-19T23:53:53.005Z,96107.44
2023-04-19T23:56:19.590Z,96109.84
2023-04-19T23:58:46.307Z,96096.53
